createdAt,value
2023-01-08T00:04:29.569Z,12.37
2023-01-08T00:09:33.299Z,9.70
2023-01-08T00:14:35.510Z,9.23
2023-01-08T00:19:37.956Z,9.77
2023-01-08T00:24:41.199Z,10.80
2023-01-08T00:29:43.283Z,11.20
2023-01-08T00:34:45.224Z,9.87
2023-01-08T00:39:49.234Z,10.17
2023-01-08T00:44:51.231Z,12.87
2023-01-08T00:49:53.163Z,13.43
2023-01-08T00:54:56.791Z,11.80
2023-01-08T00:59:59.268Z,14.20
2023-01-08T01:05:01.433Z,13.07
2023-01-08T01:10:05.359Z,14.40
2023-01-08T01:15:09.739Z,12.43
2023-01-08T01:20:14.226Z,11.80
2023-01-08T01:25:18.098Z,12.17
2023-01-08T01:30:20.651Z,12.67
2023-01-08T01:35:22.808Z,10.93
2023-01-08T01:40:26.526Z,11.17
2023-01-08T01:45:29.144Z,10.03
2023-01-08T01:50:33.977Z,10.07
2023-01-08T01:55:39.634Z,10.80
2023-01-08T02:00:42.008Z,8.97
2023-01-08T02:05:52.086Z,8.63
2023-01-08T02:11:00.118Z,9.50
2023-01-08T02:16:10.402Z,9.87
2023-01-08T02:21:15.716Z,8.40
2023-01-08T02:26:25.058Z,8.27
2023-01-08T02:31:28.775Z,8.70
2023-01-08T02:36:37.079Z,8.10
2023-01-08T02:42:04.131Z,9.47
2023-01-08T02:47:09.695Z,8.47
2023-01-08T02:52:14.590Z,7.43
2023-01-08T02:57:20.396Z,8.67
2023-01-08T03:02:22.565Z,7.87
2023-01-08T03:07:24.888Z,7.93
2023-01-08T03:12:39.663Z,8.40
2023-01-08T03:17:45.098Z,8.40
2023-01-08T03:22:50.122Z,8.60
2023-01-08T03:27:57.386Z,8.80
2023-01-08T03:33:01.978Z,8.60
2023-01-08T03:38:09.421Z,8.73
2023-01-08T03:43:13.258Z,9.50
2023-01-08T03:48:15.693Z,7.97
2023-01-08T03:53:18.332Z,9.37
2023-01-08T03:58:22.015Z,8.27
2023-01-08T04:03:25.185Z,7.30
2023-01-08T04:08:27.257Z,6.53
2023-01-08T04:13:31.041Z,6.33
2023-01-08T04:18:33.193Z,5.57
2023-01-08T04:23:35.485Z,5.60
2023-01-08T04:28:39.283Z,5.40
2023-01-08T04:33:41.251Z,6.20
2023-01-08T04:38:43.812Z,5.10
2023-01-08T04:43:47.535Z,5.30
2023-01-08T04:48:49.544Z,4.50
2023-01-08T04:53:51.627Z,5.53
2023-01-08T04:58:55.313Z,5.73
2023-01-08T05:03:59.142Z,5.47
2023-01-08T05:09:01.708Z,6.43
2023-01-08T05:14:05.643Z,6.47
2023-01-08T05:19:07.959Z,6.27
2023-01-08T05:24:10.667Z,6.10
2023-01-08T05:29:13.951Z,5.67
2023-01-08T05:34:16.385Z,5.57
2023-01-08T05:39:18.673Z,5.20
2023-01-08T05:44:21.945Z,6.00
2023-01-08T05:49:24.189Z,6.80
2023-01-08T05:54:26.508Z,6.63
2023-01-08T06:04:57.023Z,7.43
2023-01-08T06:09:59.477Z,7.77
2023-01-08T06:15:02.894Z,7.13
2023-01-08T06:20:06.357Z,6.80
2023-01-08T06:25:09.017Z,7.83
2023-01-08T06:30:13.152Z,6.77
2023-01-08T06:35:15.096Z,6.40
2023-01-08T06:40:17.085Z,7.07
2023-01-08T06:45:20.615Z,6.80
2023-01-08T06:50:22.805Z,7.70
2023-01-08T06:55:26.048Z,7.00
2023-01-08T07:00:29.707Z,7.70
2023-01-08T07:05:32.414Z,7.60
2023-01-08T07:10:36.138Z,7.20
2023-01-08T07:15:39.931Z,10.10
2023-01-08T07:20:42.080Z,8.17
2023-01-08T07:25:44.562Z,10.40
2023-01-08T07:30:47.910Z,11.47
2023-01-08T07:35:53.879Z,11.40
2023-01-08T07:40:55.949Z,10.53
2023-01-08T07:45:59.572Z,8.30
2023-01-08T07:51:05.948Z,7.80
2023-01-08T07:56:10.103Z,7.93
2023-01-08T08:01:57.448Z,8.30
2023-01-08T08:07:05.625Z,9.47
2023-01-08T08:12:49.317Z,8.10
2023-01-08T08:17:53.283Z,8.77
2023-01-08T08:23:02.939Z,10.00
2023-01-08T08:28:06.191Z,7.10
2023-01-08T08:33:10.067Z,8.67
2023-01-08T08:38:12.282Z,9.30
2023-01-08T08:43:15.032Z,14.00
2023-01-08T08:48:18.574Z,9.50
2023-01-08T08:53:21.064Z,11.80
2023-01-08T08:58:23.531Z,7.60
2023-01-08T09:03:27.135Z,9.43
2023-01-08T09:08:29.289Z,8.70
2023-01-08T09:13:31.583Z,6.90
2023-01-08T09:18:35.308Z,6.93
2023-01-08T09:23:38.869Z,5.70
2023-01-08T09:28:40.827Z,4.23
2023-01-08T09:33:44.644Z,4.23
2023-01-08T09:38:47.065Z,6.60
2023-01-08T09:43:53.728Z,4.17
2023-01-08T09:49:00.986Z,4.03
2023-01-08T09:54:04.559Z,3.00
2023-01-08T09:59:07.275Z,3.27
2023-01-08T10:04:16.084Z,3.30
2023-01-08T10:09:18.833Z,4.20
2023-01-08T10:14:24.751Z,4.37
2023-01-08T10:19:28.506Z,4.80
2023-01-08T10:24:35.997Z,8.40
2023-01-08T10:29:40.007Z,7.27
2023-01-08T10:34:47.376Z,3.73
2023-01-08T10:39:50.867Z,3.83
2023-01-08T10:44:58.681Z,5.10
2023-01-08T10:50:04.498Z,6.77
2023-01-08T10:55:15.210Z,4.83
2023-01-08T11:00:28.986Z,5.00
2023-01-08T11:05:38.895Z,5.07
2023-01-08T11:10:41.344Z,9.03
2023-01-08T11:15:43.950Z,7.30
2023-01-08T11:20:48.248Z,5.33
2023-01-08T11:25:57.329Z,7.60
2023-01-08T11:31:12.083Z,10.47
2023-01-08T11:36:22.997Z,10.00
2023-01-08T11:41:44.212Z,11.90
2023-01-08T11:46:53.294Z,8.03
2023-01-08T11:52:20.660Z,9.87
2023-01-08T11:57:35.968Z,7.60
2023-01-08T12:02:54.370Z,8.67
2023-01-08T12:08:06.710Z,7.87
2023-01-08T12:13:21.863Z,8.27
2023-01-08T12:18:53.364Z,13.97
2023-01-08T12:24:12.839Z,8.40
2023-01-08T12:29:47.609Z,6.87
2023-01-08T12:34:55.841Z,7.13
2023-01-08T12:40:07.786Z,7.07
2023-01-08T12:45:18.357Z,7.93
2023-01-08T12:50:47.959Z,7.20
2023-01-08T12:56:01.262Z,7.30
2023-01-08T13:01:17.912Z,6.73
2023-01-08T13:06:22.191Z,5.87
2023-01-08T13:11:32.002Z,5.77
2023-01-08T13:16:42.177Z,6.90
2023-01-08T13:21:51.448Z,6.03
2023-01-08T13:26:55.524Z,5.70
2023-01-08T13:31:57.520Z,7.87
2023-01-08T13:37:00.684Z,8.33
2023-01-08T13:42:20.358Z,6.83
2023-01-08T13:47:31.163Z,4.73
2023-01-08T13:52:44.110Z,4.70
2023-01-08T13:57:53.033Z,5.13
2023-01-08T14:02:55.636Z,5.33
2023-01-08T14:07:59.155Z,7.87
2023-01-08T14:13:08.058Z,7.60
2023-01-08T14:18:12.554Z,7.37
2023-01-08T14:23:19.899Z,6.83
2023-01-08T14:28:24.522Z,7.27
2023-01-08T14:33:31.822Z,7.27
2023-01-08T14:38:34.069Z,7.13
2023-01-08T14:43:42.981Z,7.10
2023-01-08T14:48:46.984Z,6.70
2023-01-08T14:53:51.961Z,7.37
2023-01-08T14:58:58.348Z,7.00
2023-01-08T15:04:10.733Z,6.30
2023-01-08T15:09:23.520Z,6.00
2023-01-08T15:14:28.992Z,6.13
2023-01-08T15:19:36.328Z,6.23
2023-01-08T15:24:40.652Z,6.53
2023-01-08T15:29:50.134Z,6.70
2023-01-08T15:34:52.213Z,6.67
2023-01-08T15:39:54.159Z,6.90
2023-01-08T15:44:57.766Z,7.07
2023-01-08T15:50:00.891Z,8.03
2023-01-08T15:55:03.265Z,7.73
2023-01-08T16:00:08.408Z,8.30
2023-01-08T16:05:12.665Z,7.37
2023-01-08T16:10:15.809Z,7.37
2023-01-08T16:15:20.025Z,8.07
2023-01-08T16:20:22.903Z,7.30
2023-01-08T16:25:26.053Z,7.47
2023-01-08T16:30:30.891Z,11.97
2023-01-08T16:35:33.092Z,8.23
2023-01-08T16:40:36.407Z,8.60
2023-01-08T16:45:48.882Z,8.20
2023-01-08T16:50:52.388Z,9.40
2023-01-08T16:55:55.521Z,11.53
2023-01-08T17:01:00.010Z,10.40
2023-01-08T17:06:05.927Z,10.67
2023-01-08T17:11:11.412Z,11.90
2023-01-08T17:16:18.112Z,14.53
2023-01-08T17:21:21.032Z,13.37
2023-01-08T17:26:24.659Z,13.50
2023-01-08T17:31:28.705Z,13.67
2023-01-08T17:36:32.938Z,12.57
2023-01-08T17:41:54.869Z,13.43
2023-01-08T17:47:02.686Z,15.17
2023-01-08T17:52:05.885Z,17.93
2023-01-08T17:57:09.188Z,17.47
2023-01-08T18:02:16.289Z,19.80
2023-01-08T18:07:19.999Z,19.10
2023-01-08T18:12:22.905Z,17.93
2023-01-08T18:17:27.314Z,17.70
2023-01-08T18:22:29.841Z,14.93
2023-01-08T18:27:33.197Z,15.93
2023-01-08T18:32:38.409Z,16.93
2023-01-08T18:37:42.329Z,22.33
2023-01-08T18:42:44.933Z,19.53
2023-01-08T18:47:49.115Z,17.40
2023-01-08T18:52:52.980Z,18.37
2023-01-08T18:57:57.390Z,18.23
2023-01-08T19:03:03.199Z,15.50
2023-01-08T19:08:06.511Z,12.73
2023-01-08T19:13:12.855Z,13.20
2023-01-08T19:18:21.591Z,12.90
2023-01-08T19:23:25.799Z,10.77
2023-01-08T19:28:29.071Z,10.67
2023-01-08T19:33:34.483Z,12.77
2023-01-08T19:38:38.348Z,12.20
2023-01-08T19:43:44.326Z,11.20
2023-01-08T19:48:49.828Z,11.73
2023-01-08T19:53:53.685Z,11.40
2023-01-08T19:58:59.141Z,11.00
2023-01-08T20:04:04.669Z,11.83
2023-01-08T20:09:09.644Z,11.30
2023-01-08T20:14:14.965Z,10.27
2023-01-08T20:19:21.037Z,13.80
2023-01-08T20:24:24.086Z,15.97
2023-01-08T20:29:28.032Z,16.10
2023-01-08T20:34:33.565Z,13.53
2023-01-08T20:39:36.611Z,12.37
2023-01-08T20:44:40.433Z,13.67
2023-01-08T20:49:45.618Z,15.03
2023-01-08T20:54:49.016Z,14.17
2023-01-08T20:59:51.435Z,13.87
2023-01-08T21:04:55.955Z,14.10
2023-01-08T21:09:57.937Z,14.47
2023-01-08T21:15:00.274Z,15.13
2023-01-08T21:20:04.851Z,15.70
2023-01-08T21:25:08.372Z,16.17
2023-01-08T21:30:12.143Z,15.93
2023-01-08T21:35:16.012Z,16.13
2023-01-08T21:40:18.910Z,15.80
2023-01-08T21:45:27.641Z,16.40
2023-01-08T21:50:32.647Z,17.93
2023-01-08T21:55:35.192Z,17.17
2023-01-08T22:00:38.345Z,15.20
2023-01-08T22:05:42.074Z,15.00
2023-01-08T22:10:44.293Z,15.37
2023-01-08T22:15:46.424Z,16.03
2023-01-08T22:20:50.239Z,16.33
2023-01-08T22:25:52.225Z,14.77
2023-01-08T22:30:54.431Z,14.63
2023-01-08T22:35:57.975Z,14.90
2023-01-08T22:41:00.179Z,15.33
2023-01-08T22:46:02.504Z,15.43
2023-01-08T22:51:06.582Z,14.77
2023-01-08T22:56:12.480Z,15.40
2023-01-08T23:01:16.735Z,16.27
2023-01-08T23:06:21.774Z,15.83
2023-01-08T23:11:24.970Z,15.10
2023-01-08T23:16:27.444Z,16.53
2023-01-08T23:21:31.251Z,18.33
2023-01-08T23:26:33.498Z,16.87
2023-01-08T23:31:37.876Z,17.57
2023-01-08T23:36:43.102Z,18.70
2023-01-08T23:41:45.745Z,20.13
2023-01-08T23:46:47.759Z,20.47
2023-01-08T23:51:51.535Z,20.50
2023-01-08T23:56:53.835Z,21.73
